sensor_id;sensor_type;location;lat;lon;timestamp;temperature;humidity
32506;DHT22;18955;51.224;8.482;2023-06-19T00:02:22;19.90;70.40
32506;DHT22;18955;51.224;8.482;2023-06-19T00:04:48;19.90;70.50
32506;DHT22;18955;51.224;8.482;2023-06-19T00:07:15;19.80;70.70
32506;DHT22;18955;51.224;8.482;2023-06-19T00:09:41;19.80;70.60
32506;DHT22;18955;51.224;8.482;2023-06-19T00:12:07;19.80;70.50
32506;DHT22;18955;51.224;8.482;2023-06-19T00:14:33;19.80;70.50
32506;DHT22;18955;51.224;8.482;2023-06-19T00:17:01;19.80;70.60
32506;DHT22;18955;51.224;8.482;2023-06-19T00:19:28;19.80;70.70
32506;DHT22;18955;51.224;8.482;2023-06-19T00:21:54;19.80;70.60
32506;DHT22;18955;51.224;8.482;2023-06-19T00:24:23;19.80;70.70
32506;DHT22;18955;51.224;8.482;2023-06-19T00:26:49;19.70;70.60
32506;DHT22;18955;51.224;8.482;2023-06-19T00:29:15;19.70;70.60
32506;DHT22;18955;51.224;8.482;2023-06-19T00:31:45;19.70;70.60
32506;DHT22;18955;51.224;8.482;2023-06-19T00:34:19;19.70;70.80
32506;DHT22;18955;51.224;8.482;2023-06-19T00:36:45;19.70;70.70
32506;DHT22;18955;51.224;8.482;2023-06-19T00:39:13;19.70;70.80
32506;DHT22;18955;51.224;8.482;2023-06-19T00:41:40;19.70;70.80
32506;DHT22;18955;51.224;8.482;2023-06-19T00:44:09;19.60;70.70
32506;DHT22;18955;51.224;8.482;2023-06-19T00:46:36;19.60;70.70
32506;DHT22;18955;51.224;8.482;2023-06-19T00:49:03;19.60;70.70
32506;DHT22;18955;51.224;8.482;2023-06-19T00:51:29;19.60;70.70
32506;DHT22;18955;51.224;8.482;2023-06-19T00:53:56;19.60;70.90
32506;DHT22;18955;51.224;8.482;2023-06-19T00:56:22;19.50;70.90
32506;DHT22;18955;51.224;8.482;2023-06-19T00:58:51;19.50;70.80
32506;DHT22;18955;51.224;8.482;2023-06-19T01:01:19;19.50;70.90
32506;DHT22;18955;51.224;8.482;2023-06-19T01:03:47;19.50;70.80
32506;DHT22;18955;51.224;8.482;2023-06-19T01:06:15;19.50;70.90
32506;DHT22;18955;51.224;8.482;2023-06-19T01:08:49;19.40;70.80
32506;DHT22;18955;51.224;8.482;2023-06-19T01:11:21;19.40;70.80
32506;DHT22;18955;51.224;8.482;2023-06-19T01:16:22;19.40;70.80
32506;DHT22;18955;51.224;8.482;2023-06-19T01:18:48;19.40;70.70
32506;DHT22;18955;51.224;8.482;2023-06-19T01:21:16;19.40;71.00
32506;DHT22;18955;51.224;8.482;2023-06-19T01:23:43;19.30;70.70
32506;DHT22;18955;51.224;8.482;2023-06-19T01:26:10;19.30;70.70
32506;DHT22;18955;51.224;8.482;2023-06-19T01:28:42;19.30;70.80
32506;DHT22;18955;51.224;8.482;2023-06-19T01:31:42;19.30;70.70
32506;DHT22;18955;51.224;8.482;2023-06-19T01:34:10;19.30;70.90
32506;DHT22;18955;51.224;8.482;2023-06-19T01:36:38;19.30;70.80
32506;DHT22;18955;51.224;8.482;2023-06-19T01:39:04;19.30;71.10
32506;DHT22;18955;51.224;8.482;2023-06-19T01:41:32;19.30;70.80
32506;DHT22;18955;51.224;8.482;2023-06-19T01:43:59;19.20;70.80
32506;DHT22;18955;51.224;8.482;2023-06-19T01:46:26;19.20;70.70
32506;DHT22;18955;51.224;8.482;2023-06-19T01:48:52;19.20;70.90
32506;DHT22;18955;51.224;8.482;2023-06-19T01:51:19;19.20;71.00
32506;DHT22;18955;51.224;8.482;2023-06-19T01:53:45;19.10;70.80
32506;DHT22;18955;51.224;8.482;2023-06-19T01:56:12;19.10;70.90
32506;DHT22;18955;51.224;8.482;2023-06-19T01:58:38;19.10;70.90
32506;DHT22;18955;51.224;8.482;2023-06-19T02:01:04;19.10;70.80
32506;DHT22;18955;51.224;8.482;2023-06-19T02:03:30;19.10;70.80
32506;DHT22;18955;51.224;8.482;2023-06-19T02:05:57;19.10;71.00
32506;DHT22;18955;51.224;8.482;2023-06-19T02:08:23;19.00;71.00
32506;DHT22;18955;51.224;8.482;2023-06-19T02:10:49;19.00;70.80
32506;DHT22;18955;51.224;8.482;2023-06-19T02:13:15;19.00;71.00
32506;DHT22;18955;51.224;8.482;2023-06-19T02:15:41;19.00;71.00
32506;DHT22;18955;51.224;8.482;2023-06-19T02:18:08;19.00;70.80
32506;DHT22;18955;51.224;8.482;2023-06-19T02:20:34;18.90;71.00
32506;DHT22;18955;51.224;8.482;2023-06-19T02:23:01;19.00;71.00
32506;DHT22;18955;51.224;8.482;2023-06-19T02:25:29;18.90;71.00
32506;DHT22;18955;51.224;8.482;2023-06-19T02:27:55;18.90;71.00
32506;DHT22;18955;51.224;8.482;2023-06-19T02:30:21;18.90;71.00
32506;DHT22;18955;51.224;8.482;2023-06-19T02:32:48;18.90;71.20
32506;DHT22;18955;51.224;8.482;2023-06-19T02:35:14;18.90;71.00
32506;DHT22;18955;51.224;8.482;2023-06-19T02:37:41;18.80;70.90
32506;DHT22;18955;51.224;8.482;2023-06-19T02:40:08;18.80;70.90
32506;DHT22;18955;51.224;8.482;2023-06-19T02:42:36;18.80;70.90
32506;DHT22;18955;51.224;8.482;2023-06-19T02:45:02;18.80;71.10
32506;DHT22;18955;51.224;8.482;2023-06-19T02:47:29;18.80;71.00
32506;DHT22;18955;51.224;8.482;2023-06-19T02:50:00;18.80;71.00
32506;DHT22;18955;51.224;8.482;2023-06-19T02:52:27;18.80;71.10
32506;DHT22;18955;51.224;8.482;2023-06-19T02:54:54;18.80;71.00
32506;DHT22;18955;51.224;8.482;2023-06-19T02:57:20;18.70;70.80
32506;DHT22;18955;51.224;8.482;2023-06-19T02:59:46;18.70;70.90
32506;DHT22;18955;51.224;8.482;2023-06-19T03:02:14;18.70;70.90
32506;DHT22;18955;51.224;8.482;2023-06-19T03:04:42;18.60;70.90
32506;DHT22;18955;51.224;8.482;2023-06-19T03:07:10;18.60;71.50
32506;DHT22;18955;51.224;8.482;2023-06-19T03:09:36;18.60;71.10
32506;DHT22;18955;51.224;8.482;2023-06-19T03:12:03;18.60;70.90
32506;DHT22;18955;51.224;8.482;2023-06-19T03:14:30;18.60;70.90
32506;DHT22;18955;51.224;8.482;2023-06-19T03:16:56;18.60;70.80
32506;DHT22;18955;51.224;8.482;2023-06-19T03:19:23;18.60;70.90
32506;DHT22;18955;51.224;8.482;2023-06-19T03:21:51;18.60;71.10
32506;DHT22;18955;51.224;8.482;2023-06-19T03:24:17;18.60;71.00
32506;DHT22;18955;51.224;8.482;2023-06-19T03:26:43;18.60;71.20
32506;DHT22;18955;51.224;8.482;2023-06-19T03:29:09;18.50;71.00
32506;DHT22;18955;51.224;8.482;2023-06-19T03:31:51;18.50;71.00
32506;DHT22;18955;51.224;8.482;2023-06-19T03:34:20;18.50;70.90
32506;DHT22;18955;51.224;8.482;2023-06-19T03:36:47;18.50;71.00
32506;DHT22;18955;51.224;8.482;2023-06-19T03:39:13;18.50;70.90
32506;DHT22;18955;51.224;8.482;2023-06-19T03:41:41;18.40;71.00
32506;DHT22;18955;51.224;8.482;2023-06-19T03:44:08;18.40;71.00
32506;DHT22;18955;51.224;8.482;2023-06-19T03:46:34;18.40;71.10
32506;DHT22;18955;51.224;8.482;2023-06-19T03:49:02;18.40;71.00
32506;DHT22;18955;51.224;8.482;2023-06-19T03:51:30;18.40;70.90
32506;DHT22;18955;51.224;8.482;2023-06-19T03:53:56;18.40;71.00
32506;DHT22;18955;51.224;8.482;2023-06-19T03:56:23;18.40;71.10
32506;DHT22;18955;51.224;8.482;2023-06-19T03:58:49;18.40;71.10
32506;DHT22;18955;51.224;8.482;2023-06-19T04:01:15;18.40;71.10
32506;DHT22;18955;51.224;8.482;2023-06-19T04:03:41;18.30;71.10
32506;DHT22;18955;51.224;8.482;2023-06-19T04:06:08;18.30;71.00
32506;DHT22;18955;51.224;8.482;2023-06-19T04:08:38;18.30;71.00
32506;DHT22;18955;51.224;8.482;2023-06-19T04:11:04;18.30;71.00
32506;DHT22;18955;51.224;8.482;2023-06-19T04:13:30;18.30;71.00
32506;DHT22;18955;51.224;8.482;2023-06-19T04:15:56;18.30;70.90
32506;DHT22;18955;51.224;8.482;2023-06-19T04:18:23;18.30;71.10
32506;DHT22;18955;51.224;8.482;2023-06-19T04:20:49;18.30;71.20
32506;DHT22;18955;51.224;8.482;2023-06-19T04:23:15;18.20;71.10
32506;DHT22;18955;51.224;8.482;2023-06-19T04:25:41;18.30;71.00
32506;DHT22;18955;51.224;8.482;2023-06-19T04:28:07;18.10;70.80
32506;DHT22;18955;51.224;8.482;2023-06-19T04:30:34;18.30;71.00
32506;DHT22;18955;51.224;8.482;2023-06-19T04:33:00;18.20;71.00
32506;DHT22;18955;51.224;8.482;2023-06-19T04:35:26;18.20;71.00
32506;DHT22;18955;51.224;8.482;2023-06-19T04:37:53;18.20;71.00
32506;DHT22;18955;51.224;8.482;2023-06-19T04:40:19;18.20;71.30
32506;DHT22;18955;51.224;8.482;2023-06-19T04:42:46;18.20;71.20
32506;DHT22;18955;51.224;8.482;2023-06-19T04:45:12;18.20;71.00
32506;DHT22;18955;51.224;8.482;2023-06-19T04:47:38;18.20;71.00
32506;DHT22;18955;51.224;8.482;2023-06-19T04:50:06;18.20;71.00
32506;DHT22;18955;51.224;8.482;2023-06-19T04:52:32;18.20;71.00
32506;DHT22;18955;51.224;8.482;2023-06-19T04:54:59;18.20;71.00
32506;DHT22;18955;51.224;8.482;2023-06-19T04:57:25;18.20;71.30
32506;DHT22;18955;51.224;8.482;2023-06-19T04:59:51;18.20;71.20
32506;DHT22;18955;51.224;8.482;2023-06-19T05:02:18;18.20;71.00
32506;DHT22;18955;51.224;8.482;2023-06-19T05:04:44;18.10;70.90
32506;DHT22;18955;51.224;8.482;2023-06-19T05:07:10;18.20;71.00
32506;DHT22;18955;51.224;8.482;2023-06-19T05:09:41;18.10;70.90
32506;DHT22;18955;51.224;8.482;2023-06-19T05:12:07;18.10;71.00
32506;DHT22;18955;51.224;8.482;2023-06-19T05:14:34;18.10;71.20
32506;DHT22;18955;51.224;8.482;2023-06-19T05:17:00;18.10;71.40
32506;DHT22;18955;51.224;8.482;2023-06-19T05:19:26;18.10;71.20
32506;DHT22;18955;51.224;8.482;2023-06-19T05:21:52;18.10;71.00
32506;DHT22;18955;51.224;8.482;2023-06-19T05:24:19;18.10;71.10
32506;DHT22;18955;51.224;8.482;2023-06-19T05:26:45;18.10;71.10
32506;DHT22;18955;51.224;8.482;2023-06-19T05:29:11;18.10;71.10
32506;DHT22;18955;51.224;8.482;2023-06-19T05:31:37;18.10;71.10
32506;DHT22;18955;51.224;8.482;2023-06-19T05:34:04;18.10;71.20
32506;DHT22;18955;51.224;8.482;2023-06-19T05:36:30;18.10;71.10
32506;DHT22;18955;51.224;8.482;2023-06-19T05:38:56;18.10;71.10
32506;DHT22;18955;51.224;8.482;2023-06-19T05:41:22;18.20;71.20
32506;DHT22;18955;51.224;8.482;2023-06-19T05:43:49;18.20;71.00
32506;DHT22;18955;51.224;8.482;2023-06-19T05:46:15;18.20;70.90
32506;DHT22;18955;51.224;8.482;2023-06-19T05:48:41;18.20;71.00
32506;DHT22;18955;51.224;8.482;2023-06-19T05:51:07;18.30;71.00
32506;DHT22;18955;51.224;8.482;2023-06-19T05:53:33;18.30;70.90
32506;DHT22;18955;51.224;8.482;2023-06-19T05:56:00;18.30;71.00
32506;DHT22;18955;51.224;8.482;2023-06-19T05:58:26;18.30;70.80
32506;DHT22;18955;51.224;8.482;2023-06-19T06:00:52;18.30;70.70
32506;DHT22;18955;51.224;8.482;2023-06-19T06:03:26;18.40;70.70
32506;DHT22;18955;51.224;8.482;2023-06-19T06:05:53;18.40;70.70
32506;DHT22;18955;51.224;8.482;2023-06-19T06:08:20;18.40;70.60
32506;DHT22;18955;51.224;8.482;2023-06-19T06:10:46;18.50;70.50
32506;DHT22;18955;51.224;8.482;2023-06-19T06:13:12;18.50;70.40
32506;DHT22;18955;51.224;8.482;2023-06-19T06:15:38;18.50;70.30
32506;DHT22;18955;51.224;8.482;2023-06-19T06:18:05;18.50;70.30
32506;DHT22;18955;51.224;8.482;2023-06-19T06:20:31;18.60;70.30
32506;DHT22;18955;51.224;8.482;2023-06-19T06:22:57;18.60;70.20
32506;DHT22;18955;51.224;8.482;2023-06-19T06:25:24;18.70;70.20
32506;DHT22;18955;51.224;8.482;2023-06-19T06:27:50;18.70;70.20
32506;DHT22;18955;51.224;8.482;2023-06-19T06:30:16;18.70;70.10
32506;DHT22;18955;51.224;8.482;2023-06-19T06:32:43;18.80;70.10
32506;DHT22;18955;51.224;8.482;2023-06-19T06:35:09;18.80;69.90
32506;DHT22;18955;51.224;8.482;2023-06-19T06:37:35;18.80;69.80
32506;DHT22;18955;51.224;8.482;2023-06-19T06:40:01;18.90;69.90
32506;DHT22;18955;51.224;8.482;2023-06-19T06:42:31;18.90;69.90
32506;DHT22;18955;51.224;8.482;2023-06-19T06:44:57;19.00;69.90
32506;DHT22;18955;51.224;8.482;2023-06-19T06:47:23;19.00;69.90
32506;DHT22;18955;51.224;8.482;2023-06-19T06:49:49;19.10;69.80
32506;DHT22;18955;51.224;8.482;2023-06-19T06:52:16;19.10;69.60
32506;DHT22;18955;51.224;8.482;2023-06-19T06:54:42;19.20;69.90
32506;DHT22;18955;51.224;8.482;2023-06-19T06:57:08;19.20;70.00
32506;DHT22;18955;51.224;8.482;2023-06-19T06:59:34;19.20;69.90
32506;DHT22;18955;51.224;8.482;2023-06-19T07:02:01;19.20;69.90
32506;DHT22;18955;51.224;8.482;2023-06-19T07:04:27;19.30;70.00
32506;DHT22;18955;51.224;8.482;2023-06-19T07:06:53;19.30;69.60
32506;DHT22;18955;51.224;8.482;2023-06-19T07:09:19;19.40;69.60
32506;DHT22;18955;51.224;8.482;2023-06-19T07:11:47;19.40;69.60
32506;DHT22;18955;51.224;8.482;2023-06-19T07:14:13;19.40;69.90
32506;DHT22;18955;51.224;8.482;2023-06-19T07:16:40;19.40;70.10
32506;DHT22;18955;51.224;8.482;2023-06-19T07:19:06;19.40;70.50
32506;DHT22;18955;51.224;8.482;2023-06-19T07:21:32;19.50;70.70
32506;DHT22;18955;51.224;8.482;2023-06-19T07:23:59;19.40;70.40
32506;DHT22;18955;51.224;8.482;2023-06-19T07:26:25;19.50;70.20
32506;DHT22;18955;51.224;8.482;2023-06-19T07:28:52;19.50;70.10
32506;DHT22;18955;51.224;8.482;2023-06-19T07:31:18;19.50;70.50
32506;DHT22;18955;51.224;8.482;2023-06-19T07:33:44;19.60;71.20
32506;DHT22;18955;51.224;8.482;2023-06-19T07:36:10;19.60;70.60
32506;DHT22;18955;51.224;8.482;2023-06-19T07:38:45;19.60;70.60
32506;DHT22;18955;51.224;8.482;2023-06-19T07:41:11;19.60;71.20
32506;DHT22;18955;51.224;8.482;2023-06-19T07:43:38;19.60;70.80
32506;DHT22;18955;51.224;8.482;2023-06-19T07:46:04;19.70;70.70
32506;DHT22;18955;51.224;8.482;2023-06-19T07:48:30;19.70;70.80
32506;DHT22;18955;51.224;8.482;2023-06-19T07:50:57;19.70;70.80
32506;DHT22;18955;51.224;8.482;2023-06-19T07:53:23;19.80;71.20
32506;DHT22;18955;51.224;8.482;2023-06-19T07:55:49;19.80;71.30
32506;DHT22;18955;51.224;8.482;2023-06-19T07:58:15;19.70;71.10
32506;DHT22;18955;51.224;8.482;2023-06-19T08:00:41;19.80;70.90
32506;DHT22;18955;51.224;8.482;2023-06-19T08:03:08;19.80;70.80
32506;DHT22;18955;51.224;8.482;2023-06-19T08:05:34;19.80;70.90
32506;DHT22;18955;51.224;8.482;2023-06-19T08:08:00;19.80;70.90
32506;DHT22;18955;51.224;8.482;2023-06-19T08:10:28;19.90;71.20
32506;DHT22;18955;51.224;8.482;2023-06-19T08:12:54;19.80;71.10
32506;DHT22;18955;51.224;8.482;2023-06-19T08:15:20;19.90;71.70
32506;DHT22;18955;51.224;8.482;2023-06-19T08:17:46;19.90;71.20
32506;DHT22;18955;51.224;8.482;2023-06-19T08:20:12;19.90;71.10
32506;DHT22;18955;51.224;8.482;2023-06-19T08:22:39;19.90;71.10
32506;DHT22;18955;51.224;8.482;2023-06-19T08:25:05;19.90;71.10
32506;DHT22;18955;51.224;8.482;2023-06-19T08:27:32;19.90;71.10
32506;DHT22;18955;51.224;8.482;2023-06-19T08:29:58;20.00;71.20
32506;DHT22;18955;51.224;8.482;2023-06-19T08:32:24;20.00;71.20
32506;DHT22;18955;51.224;8.482;2023-06-19T08:34:51;20.00;71.20
32506;DHT22;18955;51.224;8.482;2023-06-19T08:37:17;20.00;71.20
32506;DHT22;18955;51.224;8.482;2023-06-19T08:39:44;20.00;71.20
32506;DHT22;18955;51.224;8.482;2023-06-19T08:42:10;20.10;71.30
32506;DHT22;18955;51.224;8.482;2023-06-19T08:44:38;20.10;71.30
32506;DHT22;18955;51.224;8.482;2023-06-19T08:47:05;20.10;71.30
32506;DHT22;18955;51.224;8.482;2023-06-19T08:49:35;20.10;71.30
32506;DHT22;18955;51.224;8.482;2023-06-19T08:52:02;20.10;71.40
32506;DHT22;18955;51.224;8.482;2023-06-19T08:54:29;20.10;71.40
32506;DHT22;18955;51.224;8.482;2023-06-19T08:56:55;20.20;71.40
32506;DHT22;18955;51.224;8.482;2023-06-19T08:59:22;20.20;71.50
32506;DHT22;18955;51.224;8.482;2023-06-19T09:01:50;20.20;71.50
32506;DHT22;18955;51.224;8.482;2023-06-19T09:04:25;20.20;71.50
32506;DHT22;18955;51.224;8.482;2023-06-19T09:07:02;20.20;71.60
32506;DHT22;18955;51.224;8.482;2023-06-19T09:09:35;20.30;71.60
32506;DHT22;18955;51.224;8.482;2023-06-19T09:12:05;20.30;71.60
32506;DHT22;18955;51.224;8.482;2023-06-19T09:14:41;20.30;71.50
32506;DHT22;18955;51.224;8.482;2023-06-19T09:17:11;20.30;71.50
32506;DHT22;18955;51.224;8.482;2023-06-19T09:19:37;20.30;71.60
32506;DHT22;18955;51.224;8.482;2023-06-19T09:22:07;20.40;71.60
32506;DHT22;18955;51.224;8.482;2023-06-19T09:27:06;20.40;71.60
32506;DHT22;18955;51.224;8.482;2023-06-19T09:29:36;20.40;71.60
32506;DHT22;18955;51.224;8.482;2023-06-19T09:32:23;20.40;71.50
32506;DHT22;18955;51.224;8.482;2023-06-19T09:34:52;20.50;71.70
32506;DHT22;18955;51.224;8.482;2023-06-19T09:37:24;20.50;71.70
32506;DHT22;18955;51.224;8.482;2023-06-19T09:39:53;20.50;71.60
32506;DHT22;18955;51.224;8.482;2023-06-19T09:42:33;20.50;71.60
32506;DHT22;18955;51.224;8.482;2023-06-19T09:45:01;20.50;71.70
32506;DHT22;18955;51.224;8.482;2023-06-19T09:47:36;20.60;71.70
32506;DHT22;18955;51.224;8.482;2023-06-19T09:50:03;20.60;71.80
32506;DHT22;18955;51.224;8.482;2023-06-19T09:52:30;20.60;71.70
32506;DHT22;18955;51.224;8.482;2023-06-19T09:55:09;20.60;71.80
32506;DHT22;18955;51.224;8.482;2023-06-19T09:57:40;20.60;71.70
32506;DHT22;18955;51.224;8.482;2023-06-19T10:00:10;20.60;71.70
32506;DHT22;18955;51.224;8.482;2023-06-19T10:02:44;20.60;71.80
32506;DHT22;18955;51.224;8.482;2023-06-19T10:05:11;20.60;71.80
32506;DHT22;18955;51.224;8.482;2023-06-19T10:07:46;20.70;71.90
32506;DHT22;18955;51.224;8.482;2023-06-19T10:10:26;20.70;71.90
32506;DHT22;18955;51.224;8.482;2023-06-19T10:12:57;20.70;71.90
32506;DHT22;18955;51.224;8.482;2023-06-19T10:15:26;20.70;71.90
32506;DHT22;18955;51.224;8.482;2023-06-19T10:18:03;20.80;71.90
32506;DHT22;18955;51.224;8.482;2023-06-19T10:20:31;20.80;71.80
32506;DHT22;18955;51.224;8.482;2023-06-19T10:23:05;20.80;71.80
32506;DHT22;18955;51.224;8.482;2023-06-19T10:25:36;20.80;71.80
32506;DHT22;18955;51.224;8.482;2023-06-19T10:28:03;20.80;71.80
32506;DHT22;18955;51.224;8.482;2023-06-19T10:30:32;20.80;71.70
32506;DHT22;18955;51.224;8.482;2023-06-19T10:33:00;20.90;71.90
32506;DHT22;18955;51.224;8.482;2023-06-19T10:35:29;20.90;71.90
32506;DHT22;18955;51.224;8.482;2023-06-19T10:37:55;20.90;72.00
32506;DHT22;18955;51.224;8.482;2023-06-19T10:40:21;20.90;71.90
32506;DHT22;18955;51.224;8.482;2023-06-19T10:42:48;20.90;72.00
32506;DHT22;18955;51.224;8.482;2023-06-19T10:45:15;20.90;72.00
32506;DHT22;18955;51.224;8.482;2023-06-19T10:47:44;21.00;72.00
32506;DHT22;18955;51.224;8.482;2023-06-19T10:50:14;21.00;72.00
32506;DHT22;18955;51.224;8.482;2023-06-19T10:52:44;21.00;72.00
32506;DHT22;18955;51.224;8.482;2023-06-19T10:55:12;20.90;72.00
32506;DHT22;18955;51.224;8.482;2023-06-19T10:57:39;20.90;72.00
32506;DHT22;18955;51.224;8.482;2023-06-19T11:00:06;21.00;72.10
32506;DHT22;18955;51.224;8.482;2023-06-19T11:02:41;21.00;72.10
32506;DHT22;18955;51.224;8.482;2023-06-19T11:05:12;21.00;72.10
32506;DHT22;18955;51.224;8.482;2023-06-19T11:07:39;21.00;72.10
32506;DHT22;18955;51.224;8.482;2023-06-19T11:10:06;21.00;72.10
32506;DHT22;18955;51.224;8.482;2023-06-19T11:12:33;21.00;72.20
32506;DHT22;18955;51.224;8.482;2023-06-19T11:15:03;21.00;72.20
32506;DHT22;18955;51.224;8.482;2023-06-19T11:17:31;21.10;72.30
32506;DHT22;18955;51.224;8.482;2023-06-19T11:19:57;21.10;72.30
32506;DHT22;18955;51.224;8.482;2023-06-19T11:22:36;21.10;72.30
32506;DHT22;18955;51.224;8.482;2023-06-19T11:25:03;21.10;72.30
32506;DHT22;18955;51.224;8.482;2023-06-19T11:27:30;21.10;72.30
32506;DHT22;18955;51.224;8.482;2023-06-19T11:29:58;21.10;72.20
32506;DHT22;18955;51.224;8.482;2023-06-19T11:32:31;21.10;72.30
32506;DHT22;18955;51.224;8.482;2023-06-19T11:35:03;21.10;72.20
32506;DHT22;18955;51.224;8.482;2023-06-19T11:37:30;21.10;72.20
32506;DHT22;18955;51.224;8.482;2023-06-19T11:39:57;21.20;72.10
32506;DHT22;18955;51.224;8.482;2023-06-19T11:42:23;21.20;72.20
32506;DHT22;18955;51.224;8.482;2023-06-19T11:45:00;21.20;72.20
32506;DHT22;18955;51.224;8.482;2023-06-19T11:47:33;21.20;72.20
32506;DHT22;18955;51.224;8.482;2023-06-19T11:50:00;21.20;72.20
32506;DHT22;18955;51.224;8.482;2023-06-19T11:52:29;21.20;72.20
32506;DHT22;18955;51.224;8.482;2023-06-19T11:54:56;21.20;72.10
32506;DHT22;18955;51.224;8.482;2023-06-19T11:57:23;21.20;72.20
32506;DHT22;18955;51.224;8.482;2023-06-19T11:59:49;21.20;72.20
32506;DHT22;18955;51.224;8.482;2023-06-19T12:02:15;21.20;72.20
32506;DHT22;18955;51.224;8.482;2023-06-19T12:04:41;21.20;72.20
32506;DHT22;18955;51.224;8.482;2023-06-19T12:07:08;21.20;72.20
32506;DHT22;18955;51.224;8.482;2023-06-19T12:09:34;21.20;72.20
32506;DHT22;18955;51.224;8.482;2023-06-19T12:12:01;21.30;72.10
32506;DHT22;18955;51.224;8.482;2023-06-19T12:14:27;21.30;72.10
32506;DHT22;18955;51.224;8.482;2023-06-19T12:16:53;21.30;72.10
32506;DHT22;18955;51.224;8.482;2023-06-19T12:19:19;21.30;72.20
32506;DHT22;18955;51.224;8.482;2023-06-19T12:21:46;21.30;72.20
32506;DHT22;18955;51.224;8.482;2023-06-19T12:24:12;21.30;72.20
32506;DHT22;18955;51.224;8.482;2023-06-19T12:26:38;21.30;72.10
32506;DHT22;18955;51.224;8.482;2023-06-19T12:29:06;21.40;72.10
32506;DHT22;18955;51.224;8.482;2023-06-19T12:31:33;21.30;71.90
32506;DHT22;18955;51.224;8.482;2023-06-19T12:34:00;21.40;72.20
32506;DHT22;18955;51.224;8.482;2023-06-19T12:36:29;21.40;72.30
32506;DHT22;18955;51.224;8.482;2023-06-19T12:38:59;21.40;72.20
32506;DHT22;18955;51.224;8.482;2023-06-19T12:41:25;21.40;72.20
32506;DHT22;18955;51.224;8.482;2023-06-19T12:43:52;21.40;72.00
32506;DHT22;18955;51.224;8.482;2023-06-19T12:46:18;21.40;71.80
32506;DHT22;18955;51.224;8.482;2023-06-19T12:48:44;21.40;71.90
32506;DHT22;18955;51.224;8.482;2023-06-19T12:51:17;21.50;72.10
32506;DHT22;18955;51.224;8.482;2023-06-19T12:53:44;21.50;72.10
32506;DHT22;18955;51.224;8.482;2023-06-19T12:56:10;21.40;72.20
32506;DHT22;18955;51.224;8.482;2023-06-19T12:58:36;21.50;72.20
32506;DHT22;18955;51.224;8.482;2023-06-19T13:01:02;21.50;71.80
32506;DHT22;18955;51.224;8.482;2023-06-19T13:03:29;21.50;71.70
32506;DHT22;18955;51.224;8.482;2023-06-19T13:05:55;21.50;71.80
32506;DHT22;18955;51.224;8.482;2023-06-19T13:08:21;21.60;71.90
32506;DHT22;18955;51.224;8.482;2023-06-19T13:10:47;21.60;71.90
32506;DHT22;18955;51.224;8.482;2023-06-19T13:13:13;21.60;72.00
32506;DHT22;18955;51.224;8.482;2023-06-19T13:15:39;21.60;72.10
32506;DHT22;18955;51.224;8.482;2023-06-19T13:18:06;21.60;71.80
32506;DHT22;18955;51.224;8.482;2023-06-19T13:20:32;21.60;72.00
32506;DHT22;18955;51.224;8.482;2023-06-19T13:22:58;21.60;72.10
32506;DHT22;18955;51.224;8.482;2023-06-19T13:25:24;21.70;72.10
32506;DHT22;18955;51.224;8.482;2023-06-19T13:27:51;21.70;72.20
32506;DHT22;18955;51.224;8.482;2023-06-19T13:30:17;21.70;72.20
32506;DHT22;18955;51.224;8.482;2023-06-19T13:32:43;21.70;72.20
32506;DHT22;18955;51.224;8.482;2023-06-19T13:35:10;21.70;72.00
32506;DHT22;18955;51.224;8.482;2023-06-19T13:37:37;21.70;72.10
32506;DHT22;18955;51.224;8.482;2023-06-19T13:40:05;21.70;72.10
32506;DHT22;18955;51.224;8.482;2023-06-19T13:42:32;21.80;72.10
32506;DHT22;18955;51.224;8.482;2023-06-19T13:44:59;21.80;72.10
32506;DHT22;18955;51.224;8.482;2023-06-19T13:47:25;21.80;72.20
32506;DHT22;18955;51.224;8.482;2023-06-19T13:49:52;21.80;72.20
32506;DHT22;18955;51.224;8.482;2023-06-19T13:52:18;21.80;72.10
32506;DHT22;18955;51.224;8.482;2023-06-19T13:54:44;21.80;72.20
32506;DHT22;18955;51.224;8.482;2023-06-19T13:57:10;21.90;72.30
32506;DHT22;18955;51.224;8.482;2023-06-19T13:59:36;21.90;72.30
32506;DHT22;18955;51.224;8.482;2023-06-19T14:02:03;21.90;72.10
32506;DHT22;18955;51.224;8.482;2023-06-19T14:04:29;21.90;72.00
32506;DHT22;18955;51.224;8.482;2023-06-19T14:06:55;21.90;72.20
32506;DHT22;18955;51.224;8.482;2023-06-19T14:09:21;21.90;72.30
32506;DHT22;18955;51.224;8.482;2023-06-19T14:11:48;22.00;72.30
32506;DHT22;18955;51.224;8.482;2023-06-19T14:14:14;22.00;72.30
32506;DHT22;18955;51.224;8.482;2023-06-19T14:16:40;22.00;72.20
32506;DHT22;18955;51.224;8.482;2023-06-19T14:19:06;22.00;71.80
32506;DHT22;18955;51.224;8.482;2023-06-19T14:21:32;22.10;72.70
32506;DHT22;18955;51.224;8.482;2023-06-19T14:23:59;22.10;72.40
32506;DHT22;18955;51.224;8.482;2023-06-19T14:26:25;22.10;72.50
32506;DHT22;18955;51.224;8.482;2023-06-19T14:28:51;22.20;72.70
32506;DHT22;18955;51.224;8.482;2023-06-19T14:31:23;22.20;72.70
32506;DHT22;18955;51.224;8.482;2023-06-19T14:33:50;22.20;72.30
32506;DHT22;18955;51.224;8.482;2023-06-19T14:36:16;22.20;72.30
32506;DHT22;18955;51.224;8.482;2023-06-19T14:38:42;22.30;72.50
32506;DHT22;18955;51.224;8.482;2023-06-19T14:41:08;22.20;72.60
32506;DHT22;18955;51.224;8.482;2023-06-19T14:43:35;22.30;72.50
32506;DHT22;18955;51.224;8.482;2023-06-19T14:46:01;22.30;72.10
32506;DHT22;18955;51.224;8.482;2023-06-19T14:48:30;22.30;72.00
32506;DHT22;18955;51.224;8.482;2023-06-19T14:50:56;22.30;72.30
32506;DHT22;18955;51.224;8.482;2023-06-19T14:53:22;22.30;72.60
32506;DHT22;18955;51.224;8.482;2023-06-19T14:55:49;22.40;72.90
32506;DHT22;18955;51.224;8.482;2023-06-19T14:58:15;22.40;72.70
32506;DHT22;18955;51.224;8.482;2023-06-19T15:00:41;22.40;72.60
32506;DHT22;18955;51.224;8.482;2023-06-19T15:03:07;22.50;72.60
32506;DHT22;18955;51.224;8.482;2023-06-19T15:05:34;22.50;72.40
32506;DHT22;18955;51.224;8.482;2023-06-19T15:08:00;22.60;72.60
32506;DHT22;18955;51.224;8.482;2023-06-19T15:10:27;22.60;72.60
32506;DHT22;18955;51.224;8.482;2023-06-19T15:12:53;22.70;72.60
32506;DHT22;18955;51.224;8.482;2023-06-19T15:15:19;22.70;72.40
32506;DHT22;18955;51.224;8.482;2023-06-19T15:17:45;22.70;72.50
32506;DHT22;18955;51.224;8.482;2023-06-19T15:20:12;22.80;72.40
32506;DHT22;18955;51.224;8.482;2023-06-19T15:22:39;22.80;72.30
32506;DHT22;18955;51.224;8.482;2023-06-19T15:25:06;22.80;72.10
32506;DHT22;18955;51.224;8.482;2023-06-19T15:27:32;22.80;72.20
32506;DHT22;18955;51.224;8.482;2023-06-19T15:29:58;22.90;72.30
32506;DHT22;18955;51.224;8.482;2023-06-19T15:32:24;22.90;72.00
32506;DHT22;18955;51.224;8.482;2023-06-19T15:34:51;23.00;72.10
32506;DHT22;18955;51.224;8.482;2023-06-19T15:37:17;23.00;71.60